createdAt,value
2023-02-27T00:00:15.871Z,79.43
2023-02-27T00:01:15.611Z,79.53
2023-02-27T00:02:15.860Z,79.33
2023-02-27T00:03:15.616Z,79.43
2023-02-27T00:04:15.879Z,79.33
2023-02-27T00:05:15.595Z,79.33
2023-02-27T00:06:15.860Z,79.47
2023-02-27T00:07:15.590Z,79.64
2023-02-27T00:08:35.958Z,79.68
2023-02-27T00:09:15.601Z,79.78
2023-02-27T00:10:15.856Z,79.88
2023-02-27T00:11:15.591Z,79.99
2023-02-27T00:12:15.905Z,79.99
2023-02-27T00:13:15.580Z,80.20
2023-02-27T00:14:15.830Z,80.09
2023-02-27T00:15:15.564Z,79.99
2023-02-27T00:16:15.927Z,79.88
2023-02-27T00:17:15.572Z,79.78
2023-02-27T00:18:36.310Z,79.99
2023-02-27T00:19:15.588Z,79.88
2023-02-27T00:20:17.302Z,79.88
2023-02-27T00:21:15.613Z,80.09
2023-02-27T00:22:15.842Z,80.09
2023-02-27T00:23:15.583Z,80.09
2023-02-27T00:24:15.834Z,79.88
2023-02-27T00:25:15.585Z,80.20
2023-02-27T00:26:15.832Z,80.09
2023-02-27T00:27:15.569Z,80.20
2023-02-27T00:28:35.847Z,80.34
2023-02-27T00:29:15.573Z,80.51
2023-02-27T00:30:15.840Z,80.65
2023-02-27T00:31:15.623Z,80.65
2023-02-27T00:32:16.846Z,80.55
2023-02-27T00:33:15.602Z,80.44
2023-02-27T00:34:15.367Z,80.44
2023-02-27T00:35:15.603Z,80.34
2023-02-27T00:36:15.351Z,80.34
2023-02-27T00:37:15.603Z,80.44
2023-02-27T00:38:35.401Z,80.69
2023-02-27T00:39:15.600Z,80.79
2023-02-27T00:40:15.357Z,80.90
2023-02-27T00:41:16.286Z,80.90
2023-02-27T00:42:15.529Z,81.11
2023-02-27T00:43:15.596Z,81.21
2023-02-27T00:44:15.355Z,81.52
2023-02-27T00:45:15.595Z,81.42
2023-02-27T00:46:15.366Z,81.52
2023-02-27T00:47:16.271Z,81.63
2023-02-27T00:48:35.364Z,81.73
2023-02-27T00:49:15.593Z,81.73
2023-02-27T00:50:15.353Z,81.84
2023-02-27T00:51:15.598Z,81.73
2023-02-27T00:52:15.360Z,81.73
2023-02-27T00:53:15.593Z,81.73
2023-02-27T00:54:15.340Z,81.73
2023-02-27T00:55:15.090Z,81.84
2023-02-27T00:56:15.356Z,81.95
2023-02-27T00:57:15.158Z,82.15
2023-02-27T00:58:35.392Z,82.50
2023-02-27T00:59:15.116Z,82.46
2023-02-27T01:00:15.377Z,82.46
2023-02-27T01:01:15.165Z,82.36
2023-02-27T01:02:15.366Z,82.29
2023-02-27T01:03:16.062Z,82.29
2023-02-27T01:04:16.793Z,82.40
2023-02-27T01:05:15.123Z,82.60
2023-02-27T01:06:15.489Z,82.82
2023-02-27T01:07:15.114Z,82.82
2023-02-27T01:08:35.383Z,82.89
2023-02-27T01:09:15.521Z,82.78
2023-02-27T01:10:15.347Z,82.78
2023-02-27T01:11:15.099Z,82.89
2023-02-27T01:12:15.361Z,82.78
2023-02-27T01:13:15.117Z,82.78
2023-02-27T01:14:15.407Z,82.71
2023-02-27T01:15:16.581Z,82.71
2023-02-27T01:16:15.459Z,83.13
2023-02-27T01:17:15.138Z,82.99
2023-02-27T01:18:35.400Z,83.03
2023-02-27T01:19:15.132Z,83.03
2023-02-27T01:20:14.864Z,82.92
2023-02-27T01:21:15.149Z,82.92
2023-02-27T01:22:14.883Z,82.92
2023-02-27T01:23:15.145Z,82.82
2023-02-27T01:24:14.877Z,82.82
2023-02-27T01:25:15.136Z,82.82
2023-02-27T01:26:14.853Z,83.03
2023-02-27T01:27:15.233Z,83.03
2023-02-27T01:28:34.885Z,83.13
2023-02-27T01:29:15.130Z,83.13
2023-02-27T01:30:14.882Z,83.03
2023-02-27T01:31:15.163Z,83.03
2023-02-27T01:32:14.969Z,83.03
2023-02-27T01:33:16.571Z,83.13
2023-02-27T01:34:14.874Z,83.23
2023-02-27T01:35:16.623Z,83.13
2023-02-27T01:36:16.388Z,83.03
2023-02-27T01:37:16.185Z,83.03
2023-02-27T01:38:34.985Z,83.23
2023-02-27T01:39:14.815Z,83.23
2023-02-27T01:40:15.815Z,83.13
2023-02-27T01:41:16.300Z,83.03
2023-02-27T01:42:16.575Z,83.13
2023-02-27T01:43:16.393Z,83.13
2023-02-27T01:44:16.170Z,83.23
2023-02-27T01:45:15.074Z,83.23
2023-02-27T01:46:15.826Z,83.44
2023-02-27T01:47:16.089Z,83.55
2023-02-27T01:48:34.905Z,83.69
2023-02-27T01:49:15.339Z,83.69
2023-02-27T01:50:16.387Z,83.69
2023-02-27T01:51:15.328Z,83.80
2023-02-27T01:52:15.328Z,83.90
2023-02-27T01:53:16.232Z,83.90
2023-02-27T01:54:16.015Z,84.00
2023-02-27T01:55:16.311Z,83.90
2023-02-27T01:56:16.065Z,84.00
2023-02-27T01:57:16.362Z,84.00
2023-02-27T01:58:34.682Z,84.00
2023-02-27T01:59:16.407Z,83.90
2023-02-27T02:00:15.772Z,83.80
2023-02-27T02:01:16.067Z,83.80
2023-02-27T02:02:16.310Z,83.90
2023-02-27T02:03:16.056Z,83.90
2023-02-27T02:04:15.314Z,84.00
2023-02-27T02:05:16.141Z,84.22
2023-02-27T02:06:15.932Z,84.22
2023-02-27T02:07:16.205Z,84.32
2023-02-27T02:08:34.524Z,84.32
2023-02-27T02:09:16.237Z,84.22
2023-02-27T02:10:15.321Z,84.22
2023-02-27T02:11:16.357Z,84.22
2023-02-27T02:12:16.143Z,84.32
2023-02-27T02:13:15.904Z,84.11
2023-02-27T02:14:16.206Z,84.11
2023-02-27T02:15:15.316Z,84.11
2023-02-27T02:16:14.526Z,84.22
2023-02-27T02:17:16.098Z,84.11
2023-02-27T02:18:34.406Z,84.32
2023-02-27T02:19:16.107Z,84.32
2023-02-27T02:20:15.905Z,84.32
2023-02-27T02:21:15.689Z,84.22
2023-02-27T02:22:15.948Z,84.32
2023-02-27T02:23:15.726Z,84.32
2023-02-27T02:24:15.996Z,84.32
2023-02-27T02:25:15.799Z,84.42
2023-02-27T02:26:15.312Z,84.53
2023-02-27T02:27:15.909Z,84.53
2023-02-27T02:28:34.701Z,84.56
2023-02-27T02:29:15.920Z,84.67
2023-02-27T02:30:15.732Z,84.78
2023-02-27T02:31:16.145Z,84.78
2023-02-27T02:32:14.544Z,84.67
2023-02-27T02:33:15.629Z,84.78
2023-02-27T02:34:15.900Z,84.78
2023-02-27T02:35:15.713Z,84.78
2023-02-27T02:36:15.987Z,84.78
2023-02-27T02:37:14.828Z,84.78
2023-02-27T02:38:34.613Z,84.99
2023-02-27T02:39:15.788Z,84.88
2023-02-27T02:40:15.581Z,84.99
2023-02-27T02:41:15.852Z,85.09
2023-02-27T02:42:15.664Z,85.19
2023-02-27T02:43:14.847Z,85.19
2023-02-27T02:44:15.738Z,85.30
2023-02-27T02:45:15.533Z,85.30
2023-02-27T02:46:15.815Z,85.30
2023-02-27T02:47:15.573Z,85.41
2023-02-27T02:48:34.399Z,85.30
2023-02-27T02:49:15.658Z,85.34
2023-02-27T02:50:15.907Z,85.24
2023-02-27T02:51:15.669Z,85.34
2023-02-27T02:52:15.464Z,85.44
2023-02-27T02:53:15.745Z,85.44
2023-02-27T02:54:14.758Z,85.55
2023-02-27T02:55:15.783Z,85.44
2023-02-27T02:56:15.572Z,85.44
2023-02-27T02:57:15.881Z,85.34
2023-02-27T02:58:35.654Z,85.34
2023-02-27T02:59:14.842Z,85.34
2023-02-27T03:00:14.849Z,85.34
2023-02-27T03:01:15.677Z,85.34
2023-02-27T03:02:15.354Z,85.44
2023-02-27T03:03:15.132Z,85.44
2023-02-27T03:04:15.464Z,85.44
2023-02-27T03:05:14.852Z,85.44
2023-02-27T03:06:14.846Z,85.44
2023-02-27T03:07:15.363Z,85.65
2023-02-27T03:08:34.141Z,85.86
2023-02-27T03:09:15.322Z,85.86
2023-02-27T03:10:15.596Z,85.86
2023-02-27T03:11:15.382Z,85.97
2023-02-27T03:12:14.855Z,86.07
2023-02-27T03:13:15.487Z,85.97
2023-02-27T03:14:15.236Z,85.86
2023-02-27T03:15:15.532Z,85.97
2023-02-27T03:16:15.314Z,85.97
2023-02-27T03:17:14.845Z,85.75
2023-02-27T03:18:33.952Z,85.65
2023-02-27T03:19:14.861Z,85.65
2023-02-27T03:20:15.420Z,85.80
2023-02-27T03:21:15.204Z,85.86
2023-02-27T03:22:15.485Z,85.86
2023-02-27T03:23:15.286Z,85.80
2023-02-27T03:24:14.360Z,85.75
2023-02-27T03:25:15.378Z,85.86
2023-02-27T03:26:15.199Z,85.90
2023-02-27T03:27:15.520Z,85.80
2023-02-27T03:28:33.866Z,85.90
2023-02-27T03:29:15.117Z,85.90
2023-02-27T03:30:14.356Z,85.90
2023-02-27T03:31:14.518Z,85.80
2023-02-27T03:32:15.584Z,85.69
2023-02-27T03:33:15.414Z,85.69
2023-02-27T03:34:13.938Z,85.90
2023-02-27T03:35:14.573Z,86.00
2023-02-27T03:36:14.355Z,86.22
2023-02-27T03:37:15.214Z,86.32
2023-02-27T03:38:34.063Z,86.43
2023-02-27T03:39:15.310Z,86.43
2023-02-27T03:40:15.089Z,86.53
2023-02-27T03:41:15.417Z,86.53
2023-02-27T03:42:13.778Z,86.43
2023-02-27T03:43:14.246Z,86.43
2023-02-27T03:44:15.387Z,86.46
2023-02-27T03:45:13.774Z,86.46
2023-02-27T03:46:15.016Z,86.57
2023-02-27T03:47:15.295Z,86.57
2023-02-27T03:48:33.656Z,86.68
2023-02-27T03:49:14.896Z,86.78
2023-02-27T03:50:14.706Z,86.78
2023-02-27T03:51:15.095Z,86.99
2023-02-27T03:52:14.875Z,87.09
2023-02-27T03:53:15.197Z,87.09
2023-02-27T03:54:14.387Z,87.09
2023-02-27T03:55:14.537Z,87.09
2023-02-27T03:56:15.116Z,87.20
2023-02-27T03:57:14.432Z,87.30
2023-02-27T03:58:33.819Z,87.30
2023-02-27T03:59:14.367Z,87.30
2023-02-27T04:00:14.869Z,87.30
2023-02-27T04:01:15.179Z,87.41
2023-02-27T04:02:14.503Z,87.41
2023-02-27T04:03:14.859Z,87.41
2023-02-27T04:04:15.186Z,87.41
2023-02-27T04:05:14.367Z,87.41
2023-02-27T04:06:13.684Z,87.51
2023-02-27T04:07:15.138Z,87.62
2023-02-27T04:08:33.458Z,87.62
2023-02-27T04:09:15.183Z,87.62
2023-02-27T04:10:14.182Z,87.66
2023-02-27T04:11:13.380Z,87.66
2023-02-27T04:12:15.025Z,87.66
2023-02-27T04:13:14.809Z,87.62
2023-02-27T04:14:15.090Z,87.76
2023-02-27T04:15:14.884Z,87.87
2023-02-27T04:16:14.699Z,87.93
2023-02-27T04:17:13.892Z,87.83
2023-02-27T04:18:33.305Z,87.83
2023-02-27T04:19:14.234Z,87.93
2023-02-27T04:20:14.804Z,87.83
2023-02-27T04:21:13.522Z,87.62
2023-02-27T04:22:13.900Z,87.62
2023-02-27T04:23:14.704Z,87.51
2023-02-27T04:24:14.974Z,87.51
2023-02-27T04:25:14.776Z,87.41
2023-02-27T04:26:14.549Z,87.51
2023-02-27T04:27:14.844Z,87.51
2023-02-27T04:28:33.164Z,87.62
2023-02-27T04:29:14.886Z,87.62
2023-02-27T04:30:14.648Z,87.72
2023-02-27T04:31:14.269Z,87.72
2023-02-27T04:32:14.817Z,87.62
2023-02-27T04:33:14.539Z,87.51
2023-02-27T04:34:13.913Z,87.41
2023-02-27T04:35:14.621Z,87.30
2023-02-27T04:36:14.882Z,87.30
2023-02-27T04:37:14.236Z,87.41
2023-02-27T04:38:33.055Z,87.30
2023-02-27T04:39:13.903Z,87.30
2023-02-27T04:40:13.910Z,87.20
2023-02-27T04:41:14.819Z,87.20
2023-02-27T04:42:14.584Z,87.09
2023-02-27T04:43:14.390Z,87.09
2023-02-27T04:44:14.667Z,87.20
2023-02-27T04:45:15.426Z,87.30
2023-02-27T04:46:13.945Z,87.45
2023-02-27T04:47:14.516Z,87.66
2023-02-27T04:48:33.330Z,87.76
2023-02-27T04:49:14.560Z,87.76
2023-02-27T04:50:14.370Z,87.76
2023-02-27T04:51:13.931Z,87.66
2023-02-27T04:52:13.126Z,87.66
2023-02-27T04:53:13.788Z,87.66
2023-02-27T04:54:13.789Z,87.66
2023-02-27T04:55:14.349Z,87.76
2023-02-27T04:56:14.590Z,87.76
2023-02-27T04:57:13.885Z,87.76
2023-02-27T04:58:33.224Z,87.66
2023-02-27T04:59:14.408Z,87.66
2023-02-27T05:00:14.710Z,87.76
2023-02-27T05:01:14.473Z,87.87
2023-02-27T05:02:13.562Z,87.97
2023-02-27T05:03:13.444Z,87.97
2023-02-27T05:04:14.355Z,87.97
2023-02-27T05:05:14.624Z,87.97
2023-02-27T05:06:14.450Z,87.87
2023-02-27T05:07:12.957Z,87.66
2023-02-27T05:08:33.117Z,87.66
2023-02-27T05:09:14.296Z,87.45
2023-02-27T05:10:14.600Z,87.45
2023-02-27T05:11:14.441Z,87.24
2023-02-27T05:12:14.155Z,87.24
2023-02-27T05:13:14.433Z,87.24
2023-02-27T05:14:13.422Z,87.34
2023-02-27T05:15:14.514Z,87.55
2023-02-27T05:16:14.322Z,87.66
2023-02-27T05:17:14.077Z,87.76
2023-02-27T05:18:32.923Z,87.97
2023-02-27T05:19:14.118Z,88.07
2023-02-27T05:20:13.431Z,88.18
2023-02-27T05:21:14.260Z,88.29
2023-02-27T05:22:14.056Z,88.43
2023-02-27T05:23:12.968Z,88.43
2023-02-27T05:24:14.159Z,88.32
2023-02-27T05:25:14.436Z,88.32
2023-02-27T05:26:13.436Z,88.43
2023-02-27T05:27:14.029Z,88.43
2023-02-27T05:28:32.874Z,88.43
2023-02-27T05:29:14.050Z,88.43
2023-02-27T05:30:14.338Z,88.43
2023-02-27T05:31:13.458Z,88.32
2023-02-27T05:32:13.973Z,88.22
2023-02-27T05:33:14.191Z,88.12
2023-02-27T05:34:13.971Z,88.22
2023-02-27T05:35:14.287Z,88.22
2023-02-27T05:36:13.296Z,88.22
2023-02-27T05:37:13.432Z,88.22
2023-02-27T05:38:32.705Z,88.22
2023-02-27T05:39:13.914Z,88.32
2023-02-27T05:40:14.206Z,88.32
2023-02-27T05:41:13.969Z,88.22
2023-02-27T05:42:14.268Z,88.32
2023-02-27T05:43:13.436Z,88.37
2023-02-27T05:44:13.073Z,88.57
2023-02-27T05:45:12.679Z,88.68
2023-02-27T05:46:12.491Z,88.68
2023-02-27T05:47:12.691Z,88.68
2023-02-27T05:48:33.918Z,88.68
2023-02-27T05:49:12.720Z,88.68
2023-02-27T05:50:12.473Z,88.68
2023-02-27T05:51:11.725Z,88.79
2023-02-27T05:52:11.729Z,88.79
2023-02-27T05:53:11.752Z,88.79
2023-02-27T05:54:12.488Z,88.79
2023-02-27T05:55:12.282Z,88.89
2023-02-27T05:56:12.537Z,88.89
2023-02-27T05:57:12.274Z,89.00
2023-02-27T05:58:34.043Z,89.00
2023-02-27T05:59:12.316Z,89.00
2023-02-27T06:00:12.655Z,89.00
2023-02-27T06:01:12.328Z,89.00
2023-02-27T06:02:12.597Z,89.00
2023-02-27T06:03:13.042Z,89.00
2023-02-27T06:04:13.618Z,89.00
2023-02-27T06:05:12.953Z,89.00
2023-02-27T06:06:12.960Z,89.00
2023-02-27T06:07:13.981Z,89.00
2023-02-27T06:08:32.317Z,89.10
2023-02-27T06:09:13.400Z,89.04
2023-02-27T06:10:13.885Z,89.14
2023-02-27T06:11:12.883Z,89.04
2023-02-27T06:12:13.923Z,89.25
2023-02-27T06:13:13.699Z,89.35
2023-02-27T06:14:13.484Z,89.46
2023-02-27T06:15:13.760Z,89.35
2023-02-27T06:16:13.596Z,89.35
2023-02-27T06:17:12.943Z,89.46
2023-02-27T06:18:32.151Z,89.56
2023-02-27T06:19:13.099Z,89.46
2023-02-27T06:20:13.623Z,89.46
2023-02-27T06:21:13.944Z,89.46
2023-02-27T06:22:12.955Z,89.56
2023-02-27T06:23:13.524Z,89.56
2023-02-27T06:24:13.244Z,89.67
2023-02-27T06:25:13.662Z,89.77
2023-02-27T06:26:13.448Z,89.87
2023-02-27T06:27:12.980Z,89.98
2023-02-27T06:28:32.061Z,89.98
2023-02-27T06:29:13.753Z,89.98
2023-02-27T06:30:13.533Z,89.98
2023-02-27T06:31:13.863Z,89.98
2023-02-27T06:32:13.591Z,89.98
2023-02-27T06:33:13.321Z,90.09
2023-02-27T06:34:12.981Z,90.19
2023-02-27T06:35:13.396Z,90.19
2023-02-27T06:36:13.741Z,90.19
2023-02-27T06:37:13.461Z,90.30
2023-02-27T06:38:32.302Z,90.30
2023-02-27T06:39:12.487Z,90.25
2023-02-27T06:40:12.222Z,90.19
2023-02-27T06:41:13.706Z,90.05
2023-02-27T06:42:13.502Z,89.94
2023-02-27T06:43:13.276Z,89.84
2023-02-27T06:44:13.570Z,89.84
2023-02-27T06:45:12.918Z,89.84
2023-02-27T06:46:12.539Z,89.73
2023-02-27T06:47:13.424Z,89.73
2023-02-27T06:48:31.752Z,89.62
2023-02-27T06:49:13.469Z,89.62
2023-02-27T06:50:13.275Z,89.62
2023-02-27T06:51:13.572Z,89.73
2023-02-27T06:52:11.465Z,89.62
2023-02-27T06:53:12.610Z,89.52
2023-02-27T06:54:12.633Z,89.31
2023-02-27T06:55:12.667Z,89.21
2023-02-27T06:56:11.961Z,89.21
2023-02-27T06:57:13.577Z,89.21
2023-02-27T06:58:31.884Z,89.31
2023-02-27T06:59:12.559Z,89.31
2023-02-27T07:00:12.527Z,89.52
2023-02-27T07:01:12.545Z,89.62
2023-02-27T07:02:12.570Z,89.79
2023-02-27T07:03:12.526Z,89.79
2023-02-27T07:04:11.471Z,89.90
2023-02-27T07:05:12.516Z,89.79
2023-02-27T07:06:12.534Z,89.79
2023-02-27T07:07:32.485Z,89.90
2023-02-27T07:08:32.040Z,89.79
2023-02-27T07:09:11.474Z,89.79
2023-02-27T07:10:12.427Z,89.75
2023-02-27T07:11:12.488Z,89.75
2023-02-27T07:12:12.435Z,89.86
2023-02-27T07:13:14.187Z,89.75
2023-02-27T07:14:12.411Z,89.86
2023-02-27T07:15:11.484Z,89.86
2023-02-27T07:16:12.444Z,89.86
2023-02-27T07:17:12.386Z,89.75
2023-02-27T07:18:30.954Z,89.61
2023-02-27T07:19:12.333Z,89.61
2023-02-27T07:20:12.367Z,89.47
2023-02-27T07:21:11.479Z,89.36
2023-02-27T07:22:13.191Z,89.00
2023-02-27T07:23:12.991Z,88.44
2023-02-27T07:24:13.262Z,87.69
2023-02-27T07:25:13.085Z,86.43
2023-02-27T07:26:11.481Z,83.87
2023-02-27T07:27:11.801Z,79.59
2023-02-27T07:28:31.688Z,76.19
2023-02-27T07:29:13.182Z,74.26
2023-02-27T07:30:12.990Z,71.80
2023-02-27T07:31:12.780Z,68.94
2023-02-27T07:32:12.070Z,67.43
2023-02-27T07:33:12.859Z,65.44
2023-02-27T07:34:13.103Z,64.45
2023-02-27T07:35:12.112Z,63.18
2023-02-27T07:36:13.165Z,62.15
2023-02-27T07:37:11.988Z,61.50
2023-02-27T07:38:31.247Z,61.16
2023-02-27T07:39:13.028Z,61.16
2023-02-27T07:40:13.053Z,60.21
2023-02-27T07:41:28.384Z,59.45
2023-02-27T07:42:12.531Z,58.94
2023-02-27T07:43:11.266Z,59.28
2023-02-27T07:44:11.535Z,59.17
2023-02-27T07:45:11.268Z,59.61
2023-02-27T07:46:11.514Z,60.28
2023-02-27T07:47:11.268Z,60.70
2023-02-27T07:48:31.544Z,61.35
2023-02-27T07:49:11.292Z,61.27
2023-02-27T07:50:11.552Z,62.44
2023-02-27T07:51:11.283Z,63.19
2023-02-27T07:52:11.548Z,63.60
2023-02-27T07:53:11.275Z,64.04
2023-02-27T07:54:11.532Z,64.83
2023-02-27T07:55:11.271Z,66.21
2023-02-27T07:56:11.033Z,66.28
2023-02-27T07:57:11.281Z,65.42
2023-02-27T07:58:31.563Z,65.35
2023-02-27T07:59:11.270Z,65.56
2023-02-27T08:00:11.024Z,66.75
2023-02-27T08:01:11.258Z,67.35
2023-02-27T08:02:11.036Z,66.93
2023-02-27T08:03:11.290Z,66.49
2023-02-27T08:04:11.096Z,65.91
2023-02-27T08:05:11.306Z,65.32
2023-02-27T08:06:11.079Z,65.42
2023-02-27T08:07:11.317Z,65.57
2023-02-27T08:08:31.086Z,64.06
2023-02-27T08:09:11.319Z,62.48
2023-02-27T08:10:11.072Z,62.17
2023-02-27T08:11:11.332Z,62.25
2023-02-27T08:12:11.085Z,62.07
2023-02-27T08:13:11.310Z,62.85
2023-02-27T08:14:11.062Z,63.47
2023-02-27T08:15:11.300Z,63.34
2023-02-27T08:16:11.092Z,63.00
2023-02-27T08:17:11.298Z,62.25
2023-02-27T08:18:31.088Z,61.19
2023-02-27T08:19:10.805Z,61.54
2023-02-27T08:20:11.064Z,59.33
2023-02-27T08:21:10.786Z,58.94
2023-02-27T08:22:11.058Z,58.89
2023-02-27T08:23:11.288Z,58.47
2023-02-27T08:24:11.061Z,57.62
2023-02-27T08:25:10.799Z,56.77
2023-02-27T08:26:11.140Z,56.44
2023-02-27T08:27:10.795Z,55.59
2023-02-27T08:28:31.079Z,55.13
2023-02-27T08:29:10.776Z,55.87
2023-02-27T08:30:11.030Z,56.59
2023-02-27T08:31:10.853Z,56.29
2023-02-27T08:32:11.085Z,56.72
2023-02-27T08:33:10.807Z,56.82
2023-02-27T08:34:11.208Z,56.80
2023-02-27T08:35:10.821Z,56.59
2023-02-27T08:36:11.103Z,55.62
2023-02-27T08:37:10.818Z,55.15
2023-02-27T08:38:31.085Z,54.30
2023-02-27T08:39:10.832Z,53.46
2023-02-27T08:40:11.096Z,53.46
2023-02-27T08:41:10.828Z,52.72
2023-02-27T08:42:10.596Z,51.18
2023-02-27T08:43:10.847Z,49.68
2023-02-27T08:44:10.586Z,48.43
2023-02-27T08:45:10.837Z,48.00
2023-02-27T08:46:10.664Z,47.72
2023-02-27T08:47:10.816Z,47.90
2023-02-27T08:48:30.590Z,46.73
2023-02-27T08:49:10.844Z,46.81
2023-02-27T08:50:10.590Z,45.65
2023-02-27T08:51:10.826Z,44.92
2023-02-27T08:52:10.588Z,44.06
2023-02-27T08:53:10.816Z,43.84
2023-02-27T08:54:10.588Z,42.29
2023-02-27T08:55:10.808Z,42.27
2023-02-27T08:56:10.560Z,41.62
2023-02-27T08:57:10.813Z,41.62
2023-02-27T08:58:30.581Z,41.35
2023-02-27T08:59:10.809Z,41.56
2023-02-27T09:00:10.602Z,41.54
2023-02-27T09:01:10.832Z,41.01
2023-02-27T09:02:56.588Z,40.77
2023-02-27T09:03:10.826Z,39.65
2023-02-27T09:05:32.564Z,40.06
2023-02-27T09:05:38.831Z,39.86
2023-02-27T09:06:39.592Z,39.59
2023-02-27T09:59:04.765Z,39.55
2023-02-27T10:06:55.199Z,33.23
2023-02-27T10:06:59.990Z,31.77
2023-02-27T10:09:46.729Z,32.21
2023-02-27T10:09:52.982Z,32.41
2023-02-27T10:36:46.504Z,32.31
2023-02-27T10:36:52.771Z,32.24
2023-02-27T10:48:11.061Z,32.34
2023-02-27T10:48:15.868Z,32.84
2023-02-27T10:49:53.816Z,33.07
2023-02-27T10:53:19.428Z,32.90
2023-02-27T10:53:45.736Z,32.31
2023-02-27T10:54:28.530Z,33.36
2023-02-27T11:00:06.290Z,32.86
2023-02-27T11:00:12.019Z,31.27
2023-02-27T11:01:11.842Z,32.37
2023-02-27T11:02:11.573Z,34.43
2023-02-27T11:04:43.886Z,35.83
2023-02-27T11:04:52.119Z,33.93
2023-02-27T11:05:50.092Z,34.48
2023-02-27T11:06:50.734Z,36.53
2023-02-27T11:08:43.013Z,36.36
2023-02-27T11:08:50.389Z,35.73
2023-02-27T11:09:50.954Z,36.95
2023-02-27T11:11:00.277Z,37.51
2023-02-27T11:15:51.257Z,36.44
2023-02-27T11:16:06.021Z,31.81
2023-02-27T11:18:16.808Z,32.34
2023-02-27T11:18:21.616Z,31.29
2023-02-27T11:20:51.890Z,32.20
2023-02-27T11:20:56.670Z,31.20
2023-02-27T11:22:17.456Z,33.09
2023-02-27T11:22:57.168Z,33.83
2023-02-27T11:24:36.378Z,34.60
2023-02-27T11:25:06.113Z,34.66
2023-02-27T11:25:57.458Z,34.64
2023-02-27T11:27:30.621Z,34.69
2023-02-27T11:28:00.504Z,33.98
2023-02-27T11:29:29.517Z,35.88
2023-02-27T11:29:57.537Z,35.06
2023-02-27T11:30:57.370Z,36.61
2023-02-27T11:32:18.694Z,38.89
2023-02-27T11:32:57.397Z,40.06
2023-02-27T11:33:57.172Z,42.06
2023-02-27T11:35:15.886Z,41.43
2023-02-27T11:35:58.275Z,40.23
2023-02-27T11:36:57.284Z,41.06
2023-02-27T11:37:57.046Z,41.85
2023-02-27T11:38:57.278Z,43.55
2023-02-27T11:39:57.041Z,44.82
2023-02-27T11:40:57.284Z,45.89
2023-02-27T11:42:17.753Z,46.85
2023-02-27T11:42:57.318Z,46.48
2023-02-27T11:43:57.073Z,46.81
2023-02-27T11:44:57.311Z,46.95
2023-02-27T11:46:17.706Z,47.89
2023-02-27T11:46:57.472Z,48.31
2023-02-27T11:47:58.761Z,49.15
2023-02-27T11:48:56.926Z,49.58
2023-02-27T11:49:57.202Z,49.30
2023-02-27T11:50:56.930Z,50.04
2023-02-27T11:52:17.354Z,50.35
2023-02-27T11:52:57.033Z,51.17
2023-02-27T11:53:57.313Z,50.68
2023-02-27T11:54:57.048Z,51.01
2023-02-27T11:55:57.300Z,51.42
2023-02-27T11:56:57.058Z,52.04
2023-02-27T11:57:56.836Z,52.17
2023-02-27T11:58:57.098Z,52.78
2023-02-27T11:59:56.895Z,52.58
2023-02-27T12:00:57.128Z,52.76
2023-02-27T12:02:17.674Z,51.73
2023-02-27T12:02:57.281Z,52.04
2023-02-27T12:03:56.984Z,52.04
2023-02-27T12:04:57.231Z,52.25
2023-02-27T12:05:57.009Z,52.35
2023-02-27T12:06:56.745Z,52.48
2023-02-27T12:07:56.989Z,52.66
2023-02-27T12:08:56.741Z,52.86
2023-02-27T12:09:57.041Z,53.17
2023-02-27T12:11:07.751Z,52.66
2023-02-27T12:12:18.059Z,52.66
2023-02-27T12:12:56.813Z,52.35
2023-02-27T12:13:57.071Z,52.35
2023-02-27T12:14:56.818Z,52.25
2023-02-27T12:15:57.142Z,51.96
2023-02-27T12:16:56.812Z,52.48
2023-02-27T12:17:57.093Z,52.69
2023-02-27T12:18:56.844Z,52.89
2023-02-27T12:19:57.082Z,52.37
2023-02-27T12:20:56.830Z,52.99
2023-02-27T12:22:17.092Z,53.41
2023-02-27T12:22:57.017Z,53.41
2023-02-27T12:23:56.820Z,53.09
2023-02-27T12:24:56.704Z,53.09
2023-02-27T12:25:56.817Z,52.99
2023-02-27T12:26:56.612Z,52.86
2023-02-27T12:27:56.818Z,52.45
2023-02-27T12:28:56.591Z,52.86
2023-02-27T12:29:56.833Z,52.27
2023-02-27T12:30:56.582Z,53.09
2023-02-27T12:32:16.913Z,53.09
2023-02-27T12:32:56.573Z,52.99
2023-02-27T12:33:56.843Z,53.20
2023-02-27T12:34:56.594Z,52.99
2023-02-27T12:35:56.919Z,53.30
2023-02-27T12:36:56.584Z,53.61
2023-02-27T12:37:56.845Z,53.74
2023-02-27T12:38:56.790Z,53.25
2023-02-27T12:39:56.544Z,53.56
2023-02-27T12:40:56.781Z,53.66
2023-02-27T12:42:16.566Z,54.17
2023-02-27T12:42:56.781Z,54.38
2023-02-27T12:43:56.551Z,53.66
2023-02-27T12:44:58.784Z,53.89
2023-02-27T12:45:56.803Z,53.68
2023-02-27T12:46:56.292Z,53.78
2023-02-27T12:47:56.550Z,54.10
2023-02-27T12:48:56.829Z,54.30
2023-02-27T12:49:56.550Z,54.51
2023-02-27T12:50:56.321Z,54.41
2023-02-27T12:52:16.578Z,54.17
2023-02-27T12:52:55.752Z,54.07
2023-02-27T12:53:56.517Z,53.66
2023-02-27T12:54:56.266Z,53.97
2023-02-27T12:55:56.499Z,54.17
2023-02-27T12:56:56.257Z,54.28
2023-02-27T12:57:56.499Z,53.94
2023-02-27T12:58:56.250Z,53.63
2023-02-27T12:59:56.489Z,53.63
2023-02-27T13:00:56.296Z,53.20
2023-02-27T13:02:16.505Z,52.78
2023-02-27T13:02:56.225Z,52.78
2023-02-27T13:03:56.521Z,53.30
2023-02-27T13:04:56.240Z,53.20
2023-02-27T13:05:56.597Z,53.50
2023-02-27T13:06:56.241Z,53.41
2023-02-27T13:07:56.488Z,53.30
2023-02-27T13:08:56.245Z,53.30
2023-02-27T13:09:56.498Z,53.58
2023-02-27T13:10:56.236Z,53.48
2023-02-27T13:12:16.516Z,53.48
2023-02-27T13:12:56.250Z,53.15
2023-02-27T13:13:56.521Z,53.66
2023-02-27T13:14:56.346Z,52.56
2023-02-27T13:15:57.560Z,53.38
2023-02-27T13:16:57.848Z,53.92
2023-02-27T13:17:57.665Z,54.13
2023-02-27T13:18:57.463Z,53.81
2023-02-27T13:19:57.802Z,53.50
2023-02-27T13:20:57.558Z,53.92
2023-02-27T13:22:16.404Z,53.48
2023-02-27T13:22:56.690Z,53.30
2023-02-27T13:23:56.671Z,53.41
2023-02-27T13:24:57.654Z,52.58
2023-02-27T13:25:56.280Z,52.89
2023-02-27T13:26:57.790Z,52.86
2023-02-27T13:27:57.600Z,52.86
2023-02-27T13:28:57.369Z,52.45
2023-02-27T13:29:56.698Z,52.97
2023-02-27T13:30:57.417Z,52.45
2023-02-27T13:32:16.366Z,52.76
2023-02-27T13:32:56.883Z,53.58
2023-02-27T13:33:57.604Z,52.78
2023-02-27T13:34:57.389Z,53.50
2023-02-27T13:35:56.729Z,52.89
2023-02-27T13:36:57.478Z,53.61
2023-02-27T13:37:57.264Z,53.48
2023-02-27T13:38:57.536Z,52.97
2023-02-27T13:39:57.336Z,52.56
2023-02-27T13:40:57.645Z,52.99
2023-02-27T13:42:15.989Z,52.37
2023-02-27T13:42:57.193Z,52.37
2023-02-27T13:43:57.477Z,53.20
2023-02-27T13:44:57.256Z,52.99
2023-02-27T13:45:57.594Z,52.89
2023-02-27T13:46:57.316Z,52.99
2023-02-27T13:47:57.005Z,53.20
2023-02-27T13:48:57.393Z,52.69
2023-02-27T13:49:57.169Z,52.78
2023-02-27T13:50:57.456Z,53.20
2023-02-27T13:52:15.792Z,53.41
2023-02-27T13:52:56.593Z,52.69
2023-02-27T13:53:56.692Z,53.09
2023-02-27T13:54:59.857Z,52.27
2023-02-27T13:55:57.687Z,51.86
2023-02-27T13:56:57.316Z,52.27
2023-02-27T13:57:57.103Z,51.76
2023-02-27T13:58:58.031Z,52.37
2023-02-27T13:59:57.183Z,52.58
2023-02-27T14:00:57.461Z,52.99
2023-02-27T14:02:15.820Z,52.19
2023-02-27T14:03:00.292Z,52.29
2023-02-27T14:03:57.273Z,52.81
2023-02-27T14:04:57.075Z,52.63
2023-02-27T14:05:56.198Z,53.04
2023-02-27T14:06:57.171Z,52.73
2023-02-27T14:07:56.237Z,53.63
2023-02-27T14:09:12.476Z,52.83
2023-02-27T14:09:58.078Z,53.35
2023-02-27T14:10:57.295Z,54.35
2023-02-27T14:12:15.624Z,53.66
2023-02-27T14:12:56.638Z,52.83
2023-02-27T14:13:57.207Z,53.35
2023-02-27T14:14:56.971Z,52.94
2023-02-27T14:15:57.306Z,52.45
2023-02-27T14:16:56.257Z,52.76
2023-02-27T14:18:05.846Z,53.17
2023-02-27T14:18:58.094Z,53.58
2023-02-27T14:19:57.164Z,53.89
2023-02-27T14:20:57.179Z,53.14
2023-02-27T14:22:15.507Z,53.76
2023-02-27T14:22:56.255Z,53.14
2023-02-27T14:23:56.199Z,52.63
2023-02-27T14:25:02.929Z,52.83
2023-02-27T14:25:58.133Z,53.35
2023-02-27T14:26:56.902Z,53.84
2023-02-27T14:27:57.326Z,52.40
2023-02-27T14:28:57.004Z,53.12
2023-02-27T14:29:56.226Z,52.61
2023-02-27T14:30:56.365Z,51.68
2023-02-27T14:32:15.550Z,51.37
2023-02-27T14:32:56.142Z,51.26
2023-02-27T14:33:56.977Z,51.16
2023-02-27T14:34:56.728Z,51.50
2023-02-27T14:35:56.227Z,51.89